Time;durP1;ratioP1;P1;durP2;ratioP2;P2;SDS_P1;SDS_P2;PMS_P1;PMS_P2;Temp;Humidity;BMP_temperature;BMP_pressure;BME280_temperature;BME280_humidity;BME280_pressure;Samples;Min_cycle;Max_cycle;Signal;HPM_P1;HPM_P2
2023/07/04 00:01:06;;;;;;;13.75;8.98;;;;;;;27.84;44.08;99486.72;4485461;32;33827;-72
2023/07/04 00:03:34;;;;;;;13.05;9.02;;;;;;;27.82;44.32;99489.72;4485146;32;33952;-70
2023/07/04 00:06:02;;;;;;;14.15;8.85;;;;;;;27.83;44.30;99490.53;4485267;32;34671;-65
2023/07/04 00:08:33;;;;;;;12.55;8.55;;;;;;;27.81;44.38;99488.06;4483883;32;33725;-69
2023/07/04 00:11:02;;;;;;;13.95;9.48;;;;;;;27.81;44.32;99488.06;4485004;32;34075;-71
2023/07/04 00:13:31;;;;;;;12.68;8.82;;;;;;;27.79;44.37;99492.97;4485398;32;33589;-72
2023/07/04 00:15:59;;;;;;;14.10;10.30;;;;;;;27.80;44.43;99491.09;4483252;32;34823;-73
2023/07/04 00:18:27;;;;;;;14.05;9.63;;;;;;;27.79;44.50;99489.41;4470815;32;34788;-72
2023/07/04 00:20:57;;;;;;;14.02;9.38;;;;;;;27.78;44.65;99487.78;4484996;32;34131;-72
2023/07/04 00:23:26;;;;;;;15.02;8.73;;;;;;;27.78;44.65;99487.78;4471082;32;33735;-68
2023/07/04 00:25:54;;;;;;;12.55;8.45;;;;;;;27.78;44.64;99488.59;4485079;32;34010;-64
2023/07/04 00:28:23;;;;;;;13.13;8.73;;;;;;;27.77;44.61;99486.94;4485023;32;34739;-73
2023/07/04 00:30:54;;;;;;;14.13;8.93;;;;;;;27.76;44.68;99489.97;4484477;32;34056;-70
2023/07/04 00:33:23;;;;;;;13.10;8.02;;;;;;;27.76;44.78;99481.72;4471221;32;33341;-74
2023/07/04 00:36:05;;;;;;;13.43;8.65;;;;;;;27.74;44.76;99490.19;4485035;32;34560;-74
2023/07/04 00:38:33;;;;;;;12.05;8.75;;;;;;;27.75;44.72;99488.31;4484959;32;33674;-72
2023/07/04 00:41:09;;;;;;;12.85;8.95;;;;;;;27.73;44.76;99494.03;4470818;32;33919;-73
2023/07/04 00:44:09;;;;;;;12.35;8.98;;;;;;;27.72;44.77;99489.66;4484778;32;33667;-73
2023/07/04 00:46:39;;;;;;;12.73;8.80;;;;;;;27.73;44.76;99487.72;4484960;32;33573;-73
2023/07/04 00:49:43;;;;;;;11.50;8.48;;;;;;;27.70;44.81;99484.41;4483594;32;34856;-73
2023/07/04 00:52:23;;;;;;;12.63;8.57;;;;;;;27.70;44.80;99484.41;4461223;32;33636;-73
2023/07/04 00:54:57;;;;;;;14.50;8.95;;;;;;;27.70;44.78;99491.81;4471304;32;32606;-70
2023/07/04 00:57:27;;;;;;;14.73;9.63;;;;;;;27.66;44.76;99487.94;4494499;31;34502;-74
2023/07/04 00:59:58;;;;;;;11.07;8.48;;;;;;;27.65;44.72;99489.84;4500585;31;33833;-70
2023/07/04 01:02:31;;;;;;;13.60;8.43;;;;;;;27.65;44.72;99494.47;4499191;31;34527;-74
2023/07/04 01:04:59;;;;;;;11.80;8.52;;;;;;;27.64;44.71;99498.31;4499683;31;33675;-73
2023/07/04 01:07:32;;;;;;;11.98;8.80;;;;;;;27.63;44.71;99494.75;4499595;31;33984;-71
2023/07/04 01:10:10;;;;;;;11.85;8.38;;;;;;;27.64;44.76;99492.84;4486292;31;34144;-72
2023/07/04 01:12:38;;;;;;;11.95;8.07;;;;;;;27.63;44.75;99474.75;4499166;31;33725;-71
2023/07/04 01:15:07;;;;;;;13.10;8.50;;;;;;;27.61;44.82;99485.16;4499105;31;33156;-74
2023/07/04 01:17:35;;;;;;;11.43;7.53;;;;;;;27.59;44.88;99481.84;4500400;31;33888;-71
2023/07/04 01:20:06;;;;;;;12.77;8.68;;;;;;;27.60;44.86;99480.75;4500571;31;33636;-74
2023/07/04 01:22:51;;;;;;;12.15;8.18;;;;;;;27.58;44.92;99481.00;4500344;31;34217;-72
2023/07/04 01:25:34;;;;;;;11.07;7.95;;;;;;;27.60;44.93;99480.75;4500421;31;33505;-73
2023/07/04 01:28:03;;;;;;;11.05;7.95;;;;;;;27.57;44.97;99479.38;4500350;31;33950;-72
2023/07/04 01:30:32;;;;;;;12.73;7.82;;;;;;;27.55;44.99;99486.19;4486405;31;33607;-73
2023/07/04 01:32:59;;;;;;;11.03;8.03;;;;;;;27.55;44.99;99491.66;4486346;31;34744;-69
2023/07/04 01:35:27;;;;;;;10.27;7.12;;;;;;;27.55;45.05;99497.16;4499143;31;33433;-74
2023/07/04 01:37:55;;;;;;;10.82;7.95;;;;;;;27.52;45.12;99495.78;4498995;31;33965;-68
2023/07/04 01:40:24;;;;;;;9.68;6.87;;;;;;;27.52;45.20;99501.25;4500126;31;35020;-71
2023/07/04 01:42:52;;;;;;;11.57;8.00;;;;;;;27.53;45.18;99504.81;4499999;31;34768;-73
2023/07/04 01:45:19;;;;;;;10.35;7.47;;;;;;;27.53;45.04;99510.28;4500582;31;33032;-70
2023/07/04 01:47:47;;;;;;;11.07;7.40;;;;;;;27.51;45.03;99516.03;4500110;31;34474;-69
2023/07/04 01:50:15;;;;;;;11.70;7.68;;;;;;;27.51;44.99;99516.03;4498979;31;34682;-74
2023/07/04 01:52:42;;;;;;;10.73;6.85;;;;;;;27.51;44.92;99517.94;4500304;31;34047;-73
2023/07/04 01:55:11;;;;;;;10.82;7.70;;;;;;;27.51;44.87;99520.69;4500127;31;33368;-69
2023/07/04 01:57:39;;;;;;;11.80;7.12;;;;;;;27.49;44.81;99520.94;4474756;32;35407;-70
2023/07/04 02:00:09;;;;;;;10.95;7.60;;;;;;;27.50;44.71;99533.56;4484437;32;34389;-74
2023/07/04 02:02:51;;;;;;;12.57;7.18;;;;;;;27.49;44.70;99540.12;4483322;32;33833;-72
2023/07/04 02:05:19;;;;;;;9.27;6.75;;;;;;;27.49;44.72;99542.03;4484352;32;34030;-72
2023/07/04 02:07:47;;;;;;;12.40;7.57;;;;;;;27.50;44.80;99557.41;4484163;32;34491;-73
2023/07/04 02:10:15;;;;;;;9.80;7.03;;;;;;;27.48;44.83;99565.87;4483096;32;34722;-72
2023/07/04 02:12:43;;;;;;;11.45;6.97;;;;;;;27.48;44.88;99570.53;4484267;32;34024;-68
2023/07/04 02:15:11;;;;;;;11.57;7.68;;;;;;;27.46;44.95;99571.59;4484406;32;34235;-72
2023/07/04 02:17:40;;;;;;;11.18;7.45;;;;;;;27.46;45.00;99570.78;4484104;32;34607;-71
2023/07/04 02:20:08;;;;;;;10.25;7.00;;;;;;;27.46;44.98;99573.50;4484213;32;33690;-72
2023/07/04 02:22:40;;;;;;;10.85;6.68;;;;;;;27.46;44.92;99573.50;4482825;32;33625;-72
2023/07/04 02:25:08;;;;;;;11.12;7.72;;;;;;;27.45;44.82;99589.13;4484226;32;33140;-74
2023/07/04 02:27:36;;;;;;;11.48;7.53;;;;;;;27.45;44.76;99594.63;4484053;32;33924;-74
2023/07/04 02:30:04;;;;;;;11.52;7.45;;;;;;;27.44;44.75;99601.19;4470465;31;33733;-74
2023/07/04 02:32:32;;;;;;;10.88;7.62;;;;;;;27.43;44.73;99596.81;4499763;31;34597;-70
2023/07/04 02:35:00;;;;;;;12.65;8.63;;;;;;;27.44;44.73;99605.84;4499827;31;33055;-74
2023/07/04 02:37:28;;;;;;;11.43;8.07;;;;;;;27.43;44.74;99607.75;4499869;31;34089;-74
2023/07/04 02:39:56;;;;;;;11.77;8.68;;;;;;;27.42;44.79;99613.50;4499119;31;34483;-72
2023/07/04 02:42:25;;;;;;;14.38;9.05;;;;;;;27.41;44.77;99615.41;4499603;31;34019;-72
2023/07/04 02:44:53;;;;;;;12.88;9.00;;;;;;;27.42;44.76;99610.78;4499955;31;34270;-73
2023/07/04 02:47:26;;;;;;;12.90;8.35;;;;;;;27.40;44.76;99615.66;4499530;31;33806;-74
2023/07/04 02:49:54;;;;;;;12.07;8.95;;;;;;;27.40;44.80;99621.13;4499649;31;34719;-71
2023/07/04 02:52:23;;;;;;;14.25;9.38;;;;;;;27.40;44.80;99629.38;4499786;31;34619;-74
2023/07/04 02:54:51;;;;;;;13.40;8.80;;;;;;;27.39;44.80;99634.03;4485335;31;34371;-72
2023/07/04 02:57:19;;;;;;;14.63;9.88;;;;;;;27.38;44.81;99640.59;4484950;31;35161;-75
2023/07/04 02:59:47;;;;;;;11.95;8.80;;;;;;;27.37;44.84;99638.94;4499416;31;34147;-70
2023/07/04 03:02:14;;;;;;;13.75;8.75;;;;;;;27.36;44.90;99634.53;4499801;31;34631;-74
2023/07/04 03:04:43;;;;;;;13.48;8.77;;;;;;;27.36;44.92;99645.47;4499603;31;33186;-73
2023/07/04 03:07:11;;;;;;;14.23;9.30;;;;;;;27.35;44.95;99637.53;4499286;31;34608;-74
2023/07/04 03:09:40;;;;;;;13.07;9.00;;;;;;;27.35;45.01;99637.53;4499514;31;34656;-74
2023/07/04 03:12:08;;;;;;;12.07;8.30;;;;;;;27.33;45.01;99639.72;4499393;31;33620;-74
2023/07/04 03:14:35;;;;;;;14.00;9.23;;;;;;;27.33;44.98;99635.06;4499298;31;34401;-72
2023/07/04 03:17:03;;;;;;;12.55;8.98;;;;;;;27.32;44.98;99638.84;4499156;31;34045;-74
2023/07/04 03:19:31;;;;;;;16.40;8.68;;;;;;;27.30;44.97;99630.06;4499097;31;33644;-73
2023/07/04 03:21:59;;;;;;;13.20;9.35;;;;;;;27.30;45.02;99629.25;4499232;31;33646;-75
2023/07/04 03:24:26;;;;;;;16.65;9.38;;;;;;;27.29;45.02;99633.09;4499094;31;32710;-69
2023/07/04 03:26:54;;;;;;;13.90;9.05;;;;;;;27.29;45.09;99622.13;4499249;31;33226;-72
2023/07/04 03:29:22;;;;;;;12.45;8.57;;;;;;;27.27;45.06;99618.78;4498914;31;33828;-72
2023/07/04 03:31:50;;;;;;;14.55;8.55;;;;;;;27.27;45.14;99618.78;4498730;31;33905;-75
2023/07/04 03:34:18;;;;;;;12.93;9.45;;;;;;;27.26;45.24;99617.97;4499369;31;33440;-72
2023/07/04 03:36:45;;;;;;;13.77;8.82;;;;;;;27.25;45.24;99624.53;4484637;31;33660;-72
2023/07/04 03:39:13;;;;;;;13.68;9.73;;;;;;;27.25;45.29;99610.84;4499005;31;34928;-74
2023/07/04 03:41:41;;;;;;;14.85;9.10;;;;;;;27.25;45.38;99612.75;4498775;31;34297;-72
2023/07/04 03:44:08;;;;;;;13.40;8.80;;;;;;;27.23;45.46;99610.25;4498890;31;33465;-73
2023/07/04 03:46:36;;;;;;;14.48;8.73;;;;;;;27.22;45.54;99614.09;4498754;31;33946;-74
2023/07/04 03:49:04;;;;;;;14.65;8.40;;;;;;;27.21;45.64;99616.00;4498733;31;34688;-71
2023/07/04 03:51:32;;;;;;;13.57;8.23;;;;;;;27.20;45.67;99608.06;4499559;31;33935;-72
2023/07/04 03:53:59;;;;;;;14.82;9.05;;;;;;;27.21;45.70;99609.69;4500878;31;34385;-69
2023/07/04 03:56:27;;;;;;;14.13;8.63;;;;;;;27.19;45.75;99611.87;4501117;31;33566;-73
2023/07/04 03:58:54;;;;;;;12.80;8.40;;;;;;;27.19;45.74;99617.34;4500986;31;33970;-68
2023/07/04 04:01:24;;;;;;;12.60;8.55;;;;;;;27.17;45.83;99617.59;4501024;31;33752;-73
2023/07/04 04:03:53;;;;;;;12.32;8.32;;;;;;;27.19;45.83;99620.09;4500923;31;33612;-75
2023/07/04 04:06:21;;;;;;;11.30;7.53;;;;;;;27.18;45.89;99615.69;4499602;31;33843;-73
2023/07/04 04:08:49;;;;;;;12.52;8.85;;;;;;;27.17;45.87;99609.38;4499600;31;34862;-70
2023/07/04 04:11:17;;;;;;;13.02;8.23;;;;;;;27.16;45.89;99617.84;4500862;31;34728;-74
2023/07/04 04:13:44;;;;;;;13.43;8.35;;;;;;;27.15;45.96;99608.00;4499693;31;33481;-70
2023/07/04 04:16:12;;;;;;;14.27;8.85;;;;;;;27.14;46.00;99614.53;4500806;31;33897;-71
2023/07/04 04:18:40;;;;;;;12.90;8.05;;;;;;;27.12;46.02;99617.53;4500898;31;33779;-73
2023/07/04 04:21:07;;;;;;;16.12;8.63;;;;;;;27.13;46.05;99621.09;4501214;31;33398;-73
2023/07/04 04:23:35;;;;;;;16.67;9.68;;;;;;;27.13;46.13;99615.62;4500796;31;33438;-72
2023/07/04 04:26:03;;;;;;;15.45;8.82;;;;;;;27.13;46.16;99615.62;4501064;31;34692;-74
2023/07/04 04:28:31;;;;;;;17.77;9.43;;;;;;;27.13;46.21;99616.44;4500830;31;35005;-74
2023/07/04 04:30:58;;;;;;;14.40;9.20;;;;;;;27.12;46.17;99605.75;4498938;31;34099;-74
2023/07/04 04:33:26;;;;;;;15.65;9.25;;;;;;;27.11;46.21;99604.94;4500803;31;33364;-74
2023/07/04 04:35:54;;;;;;;14.60;8.88;;;;;;;27.11;46.27;99595.88;4500718;31;34027;-73
2023/07/04 04:38:21;;;;;;;17.15;8.27;;;;;;;27.10;46.18;99592.31;4500609;31;33766;-73
2023/07/04 04:40:50;;;;;;;13.25;8.68;;;;;;;27.09;46.23;99593.41;4499373;31;33519;-74
2023/07/04 04:43:18;;;;;;;13.93;8.63;;;;;;;27.10;46.37;99599.72;4500621;31;33199;-72
2023/07/04 04:45:46;;;;;;;13.52;8.63;;;;;;;27.10;46.36;99619.72;4499289;31;34709;-73
2023/07/04 04:48:28;;;;;;;13.82;8.43;;;;;;;27.09;46.36;99614.47;4500723;31;33999;-72
2023/07/04 04:50:57;;;;;;;11.80;8.07;;;;;;;27.08;46.38;99630.06;4500427;31;34259;-71
2023/07/04 04:53:26;;;;;;;14.68;8.35;;;;;;;27.09;46.43;99630.91;4500716;31;33340;-71
2023/07/04 04:55:53;;;;;;;14.63;8.15;;;;;;;27.09;46.46;99629.03;4500551;31;33572;-70
2023/07/04 04:58:21;;;;;;;14.60;9.05;;;;;;;27.09;46.51;99628.16;4500717;31;34738;-72
2023/07/04 05:00:48;;;;;;;13.55;8.43;;;;;;;27.08;46.51;99638.28;4500581;31;33975;-74
2023/07/04 05:03:16;;;;;;;13.80;8.65;;;;;;;27.09;46.45;99637.22;4500601;31;33072;-72
2023/07/04 05:05:43;;;;;;;14.73;8.52;;;;;;;27.07;46.43;99636.63;4500719;31;34603;-74
2023/07/04 05:08:11;;;;;;;15.23;9.15;;;;;;;27.08;46.51;99649.25;4500661;31;33768;-75
2023/07/04 05:10:39;;;;;;;14.77;9.07;;;;;;;27.07;46.60;99641.25;4495063;31;34035;-71
2023/07/04 05:13:06;;;;;;;13.75;9.07;;;;;;;27.07;46.69;99635.78;4492183;31;33527;-74
2023/07/04 05:15:34;;;;;;;14.20;8.75;;;;;;;27.07;46.67;99630.31;4491198;31;34031;-71
2023/07/04 05:18:01;;;;;;;14.82;9.27;;;;;;;27.07;46.70;99633.06;4492906;31;34109;-73
2023/07/04 05:20:29;;;;;;;12.30;8.10;;;;;;;27.07;46.75;99638.53;4492286;31;33950;-72
2023/07/04 05:22:57;;;;;;;15.35;9.23;;;;;;;27.06;46.82;99647.84;4491560;31;33653;-73
2023/07/04 05:25:24;;;;;;;14.85;8.63;;;;;;;27.06;46.79;99651.41;4492263;31;33879;-74
2023/07/04 05:27:52;;;;;;;11.05;8.00;;;;;;;27.05;46.83;99655.22;4492575;31;33990;-73
2023/07/04 05:30:22;;;;;;;12.60;8.52;;;;;;;27.06;47.00;99656.88;4491530;31;33923;-73
2023/07/04 05:32:49;;;;;;;12.75;8.77;;;;;;;27.05;47.05;99657.97;4491679;31;33212;-74
2023/07/04 05:35:18;;;;;;;13.77;8.02;;;;;;;27.07;47.08;99668.66;4492820;31;33980;-75
2023/07/04 05:37:45;;;;;;;13.00;8.07;;;;;;;27.05;46.95;99666.19;4490998;31;33744;-72
2023/07/04 05:40:13;;;;;;;13.27;8.02;;;;;;;27.06;46.88;99673.31;4495615;31;33899;-74
2023/07/04 05:42:41;;;;;;;14.27;8.55;;;;;;;27.05;47.02;99671.66;4500460;31;33605;-75
2023/07/04 05:45:09;;;;;;;13.95;8.25;;;;;;;27.05;47.06;99668.09;4500374;31;33840;-74
2023/07/04 05:47:36;;;;;;;12.02;8.20;;;;;;;27.06;47.09;99667.00;4500236;31;34570;-74
2023/07/04 05:50:04;;;;;;;12.40;7.78;;;;;;;27.04;47.05;99672.72;4500249;31;33518;-71
2023/07/04 05:52:32;;;;;;;12.73;8.00;;;;;;;27.05;46.92;99681.78;4500170;31;33468;-71
2023/07/04 05:55:00;;;;;;;11.73;8.00;;;;;;;27.04;47.05;99680.94;4500075;31;33853;-75
2023/07/04 05:57:31;;;;;;;12.60;7.82;;;;;;;27.04;46.99;99678.19;4490133;31;34090;-74
2023/07/04 05:59:59;;;;;;;12.57;7.95;;;;;;;27.02;46.95;99672.16;4484334;32;34655;-66
2023/07/04 06:02:26;;;;;;;11.93;7.28;;;;;;;27.03;46.90;99682.03;4484183;32;34484;-73
2023/07/04 06:04:54;;;;;;;11.23;7.80;;;;;;;27.03;46.97;99676.53;4484326;32;34078;-74
2023/07/04 06:07:22;;;;;;;13.52;8.52;;;;;;;27.02;46.90;99677.62;4484367;32;34052;-70
2023/07/04 06:09:50;;;;;;;11.15;8.38;;;;;;;27.03;46.97;99679.28;4470010;32;34822;-63
2023/07/04 06:12:17;;;;;;;12.43;7.65;;;;;;;27.01;46.96;99684.19;4484274;32;34256;-66
2023/07/04 06:14:45;;;;;;;12.95;8.30;;;;;;;27.03;47.03;99683.94;4483311;32;34617;-65
2023/07/04 06:17:12;;;;;;;10.63;7.20;;;;;;;27.01;46.99;99686.94;4484123;32;33873;-73
2023/07/04 06:19:40;;;;;;;12.50;8.07;;;;;;;27.00;46.98;99685.28;4484248;32;33802;-72
2023/07/04 06:22:08;;;;;;;14.15;8.77;;;;;;;27.00;46.92;99688.03;4484215;32;33506;-64
2023/07/04 06:24:36;;;;;;;12.95;8.38;;;;;;;27.00;47.00;99690.75;4483974;32;33921;-68
2023/07/04 06:27:05;;;;;;;12.25;7.68;;;;;;;27.00;46.93;99689.91;4484133;32;33855;-65
2023/07/04 06:29:32;;;;;;;13.65;8.80;;;;;;;26.99;46.91;99686.34;4484075;32;34658;-69
2023/07/04 06:32:00;;;;;;;13.25;8.73;;;;;;;26.99;46.93;99693.72;4480928;32;90018;-72
2023/07/04 06:34:28;;;;;;;12.85;8.60;;;;;;;26.99;46.99;99691.81;4482821;32;34637;-75
2023/07/04 06:36:56;;;;;;;13.27;8.45;;;;;;;26.98;47.04;99690.16;4482813;32;33457;-73
2023/07/04 06:39:23;;;;;;;13.45;9.20;;;;;;;26.98;47.07;99692.91;4483948;32;33633;-63
2023/07/04 06:41:51;;;;;;;13.60;8.93;;;;;;;26.97;47.19;99688.50;4483959;32;33558;-63
2023/07/04 06:44:19;;;;;;;12.93;9.25;;;;;;;26.98;47.23;99692.06;4483994;32;33732;-64
2023/07/04 06:46:47;;;;;;;13.75;8.15;;;;;;;26.97;47.27;99694.00;4483752;32;33312;-65
2023/07/04 06:49:15;;;;;;;11.63;8.48;;;;;;;26.98;47.36;99692.91;4484202;32;34027;-63
2023/07/04 06:51:42;;;;;;;14.93;9.18;;;;;;;26.98;47.54;99690.16;4483842;32;33172;-64
2023/07/04 06:54:10;;;;;;;13.38;8.77;;;;;;;26.98;47.52;99692.91;4495489;31;33823;-64
2023/07/04 06:56:38;;;;;;;13.55;8.55;;;;;;;26.98;47.67;99690.16;4494779;31;33899;-73
2023/07/04 06:59:06;;;;;;;13.88;9.23;;;;;;;27.00;47.71;99698.13;4483353;32;34113;-73
2023/07/04 07:01:34;;;;;;;13.60;9.50;;;;;;;27.00;47.68;99698.13;4483456;32;34058;-64
2023/07/04 07:04:03;;;;;;;14.75;8.85;;;;;;;27.01;47.62;99697.06;4483578;32;33718;-69
2023/07/04 07:06:31;;;;;;;13.50;8.80;;;;;;;27.01;47.63;99697.88;4483508;32;34840;-68
2023/07/04 07:08:59;;;;;;;12.60;8.60;;;;;;;27.04;47.56;99696.53;4483735;32;33608;-63
2023/07/04 07:11:27;;;;;;;12.73;7.82;;;;;;;27.04;47.55;99689.13;4483565;32;33420;-63
2023/07/04 07:13:55;;;;;;;11.50;7.90;;;;;;;27.05;47.58;99693.56;4483318;32;33738;-65
2023/07/04 07:16:23;;;;;;;12.57;8.13;;;;;;;27.06;47.49;99691.66;4483489;32;34146;-66
2023/07/04 07:18:52;;;;;;;12.60;8.07;;;;;;;27.05;47.37;99690.81;4483356;32;33605;-66
2023/07/04 07:21:21;;;;;;;11.07;8.13;;;;;;;27.05;47.34;99688.09;4483595;32;33454;-66
2023/07/04 07:23:49;;;;;;;11.05;7.18;;;;;;;27.06;47.36;99694.38;4482136;32;34510;-65
2023/07/04 07:26:21;;;;;;;10.07;7.43;;;;;;;27.08;47.37;99681.25;4484820;32;34845;-66
2023/07/04 07:28:49;;;;;;;11.15;7.50;;;;;;;27.08;47.28;99693.06;4485503;32;34747;-66
2023/07/04 07:31:21;;;;;;;10.95;7.20;;;;;;;27.09;47.23;99682.94;4485522;32;33568;-66
2023/07/04 07:33:53;;;;;;;11.80;7.80;;;;;;;27.09;47.21;99694.75;4485276;32;34333;-65
2023/07/04 07:36:30;;;;;;;10.93;7.10;;;;;;;27.11;47.15;99697.22;4489794;31;34681;-66
2023/07/04 07:38:58;;;;;;;11.75;7.68;;;;;;;27.12;47.09;99690.66;4501102;31;33781;-66
2023/07/04 07:41:28;;;;;;;11.95;7.20;;;;;;;27.11;47.06;99683.53;4492115;31;33074;-66
2023/07/04 07:43:56;;;;;;;11.70;7.20;;;;;;;27.11;47.08;99689.00;4484202;32;34263;-66
2023/07/04 07:46:23;;;;;;;9.27;6.80;;;;;;;27.13;46.99;99692.31;4484112;32;33894;-65
2023/07/04 07:48:51;;;;;;;11.80;7.22;;;;;;;27.13;47.01;99697.78;4484775;31;34788;-65
2023/07/04 07:51:19;;;;;;;14.75;7.20;;;;;;;27.13;47.07;99692.31;4485260;32;33466;-65
2023/07/04 07:53:48;;;;;;;11.30;7.18;;;;;;;27.12;47.13;99694.22;4496979;31;34546;-66
2023/07/04 07:56:17;;;;;;;10.85;6.65;;;;;;;27.11;47.15;99695.31;4487170;31;34801;-66
2023/07/04 07:58:45;;;;;;;10.25;6.82;;;;;;;27.11;47.10;99699.97;4486953;31;34085;-65
2023/07/04 08:01:18;;;;;;;10.13;6.60;;;;;;;27.12;47.13;99710.66;4499800;31;33441;-66
2023/07/04 08:03:46;;;;;;;11.32;7.03;;;;;;;27.11;47.12;99714.47;4495850;31;34335;-66
2023/07/04 08:06:25;;;;;;;11.00;6.90;;;;;;;27.11;47.17;99719.13;4487787;31;33816;-67
2023/07/04 08:08:54;;;;;;;10.55;6.57;;;;;;;27.11;47.25;99717.22;4496093;31;33763;-66
2023/07/04 08:11:22;;;;;;;10.65;6.95;;;;;;;27.11;47.26;99719.13;4498594;31;34196;-65
2023/07/04 08:13:49;;;;;;;9.35;6.97;;;;;;;27.10;47.33;99718.31;4488098;31;34212;-66
2023/07/04 08:16:19;;;;;;;9.95;6.62;;;;;;;27.09;47.24;99716.66;4498037;31;34694;-65
2023/07/04 08:18:47;;;;;;;10.57;6.53;;;;;;;27.10;47.22;99723.78;4488977;31;33956;-66
2023/07/04 08:21:14;;;;;;;9.05;6.53;;;;;;;27.11;47.20;99722.69;4492711;31;33042;-65
2023/07/04 08:23:42;;;;;;;10.55;6.65;;;;;;;27.10;47.20;99726.53;4491811;31;34951;-65
2023/07/04 08:26:22;;;;;;;9.38;6.65;;;;;;;27.11;47.16;99721.88;4475320;31;33995;-66
2023/07/04 08:28:51;;;;;;;;;;;;;;;27.12;47.12;99729.81;4493086;31;34583;-65
2023/07/04 08:31:19;;;;;;;11.63;6.53;;;;;;;27.22;46.90;99726.41;4496214;31;33323;-65
2023/07/04 08:33:47;;;;;;;11.65;6.53;;;;;;;27.16;47.04;99721.94;4499351;31;33878;-65
2023/07/04 08:36:15;;;;;;;9.80;6.22;;;;;;;27.12;47.09;99716.12;4499030;31;33967;-65
2023/07/04 08:38:43;;;;;;;10.00;6.70;;;;;;;27.13;47.12;99723.25;4500409;31;34341;-65
2023/07/04 08:41:29;;;;;;;10.52;6.07;;;;;;;27.11;47.23;99703.53;4499538;31;34912;-67
2023/07/04 08:44:05;;;;;;;9.90;6.15;;;;;;;27.13;47.21;99717.78;4500435;31;34559;-65
2023/07/04 08:46:35;;;;;;;10.43;7.12;;;;;;;27.09;47.24;99713.91;4486854;31;33539;-65
2023/07/04 08:49:03;;;;;;;14.93;6.47;;;;;;;27.10;47.28;99717.47;4486485;31;34527;-65
2023/07/04 08:51:35;;;;;;;11.15;6.90;;;;;;;27.11;47.25;99717.22;4500673;31;33126;-66
2023/07/04 08:54:04;;;;;;;9.63;6.35;;;;;;;27.11;47.26;99719.97;4499217;31;33654;-65
2023/07/04 08:56:34;;;;;;;11.63;6.65;;;;;;;27.11;47.21;99713.66;4495627;31;33903;-66
2023/07/04 08:59:21;;;;;;;11.80;6.50;;;;;;;27.11;47.32;99714.47;4484807;32;34580;-66
2023/07/04 09:02:12;;;;;;;9.07;6.37;;;;;;;27.11;47.31;99719.97;4484985;31;33336;-67
2023/07/04 09:04:52;;;;;;;9.75;6.15;;;;;;;27.14;47.25;99724.94;4500345;31;33807;-67
2023/07/04 09:07:25;;;;;;;10.18;6.85;;;;;;;27.14;47.30;99721.34;4500324;31;33741;-66
2023/07/04 09:10:12;;;;;;;10.52;6.45;;;;;;;27.10;47.34;99717.47;4486235;31;34117;-67
2023/07/04 09:12:39;;;;;;;11.68;5.80;;;;;;;27.10;47.35;99712.00;4500266;31;34075;-67
2023/07/04 09:15:37;;;;;;;9.15;6.18;;;;;;;27.09;47.30;99722.12;4473076;31;33452;-67
2023/07/04 09:18:10;;;;;;;9.63;6.10;;;;;;;27.13;47.25;99722.44;4483000;31;33818;-68
2023/07/04 09:20:57;;;;;;;10.82;6.62;;;;;;;27.10;47.29;99731.19;4498790;31;33489;-67
2023/07/04 09:23:25;;;;;;;10.50;6.72;;;;;;;27.12;47.31;99732.56;4472987;31;33149;-67
2023/07/04 09:25:54;;;;;;;9.25;6.22;;;;;;;27.10;47.35;99731.19;4500284;31;34360;-67
2023/07/04 09:28:21;;;;;;;8.98;6.12;;;;;;;27.08;47.47;99723.19;4500283;31;34015;-66
2023/07/04 09:30:52;;;;;;;11.57;6.62;;;;;;;27.09;47.49;99726.75;4498490;31;34180;-66
2023/07/04 09:33:21;;;;;;;9.80;6.43;;;;;;;27.09;47.50;99727.63;4490855;31;33519;-66
2023/07/04 09:35:48;;;;;;;9.52;6.25;;;;;;;27.08;47.50;99731.41;4495738;31;33808;-65
2023/07/04 09:38:16;;;;;;;11.60;6.47;;;;;;;27.08;47.63;99725.94;4471071;31;33881;-65
2023/07/04 09:40:52;;;;;;;10.10;6.22;;;;;;;27.07;47.66;99721.50;4500249;31;34618;-66
2023/07/04 09:43:32;;;;;;;8.88;6.75;;;;;;;27.09;47.61;99729.50;4499066;31;33180;-66
2023/07/04 09:46:29;;;;;;;10.80;6.68;;;;;;;27.09;47.61;99722.12;4498620;31;34243;-66
2023/07/04 09:49:20;;;;;;;12.18;6.93;;;;;;;27.11;47.59;99719.13;4471749;31;34629;-67
2023/07/04 09:52:11;;;;;;;13.43;6.65;;;;;;;27.09;47.62;99716.66;4483809;32;34029;-68
2023/07/04 09:54:39;;;;;;;11.07;6.43;;;;;;;27.09;47.65;99719.41;4484188;32;34201;-67
2023/07/04 09:57:23;;;;;;;10.77;6.68;;;;;;;27.05;47.79;99722.88;4484163;32;33513;-67
2023/07/04 09:59:52;;;;;;;10.20;6.07;;;;;;;27.07;47.86;99716.03;4497654;31;33698;-67
2023/07/04 10:02:25;;;;;;;12.07;6.60;;;;;;;27.04;47.83;99724.75;4500069;31;33784;-68
2023/07/04 10:04:53;;;;;;;9.27;6.45;;;;;;;27.05;47.78;99720.94;4500019;31;33481;-67
2023/07/04 10:07:22;;;;;;;9.20;6.65;;;;;;;27.06;47.83;99716.28;4472975;31;32519;-67
2023/07/04 10:09:55;;;;;;;9.77;6.87;;;;;;;27.05;47.88;99715.47;4485666;31;33874;-67
2023/07/04 10:12:23;;;;;;;10.10;6.25;;;;;;;27.06;47.80;99711.66;4498725;31;33900;-67
2023/07/04 10:14:54;;;;;;;10.35;6.00;;;;;;;27.07;47.64;99707.81;4485694;31;34245;-67
2023/07/04 10:17:30;;;;;;;10.18;6.00;;;;;;;27.07;47.69;99705.06;4500172;31;33415;-67
2023/07/04 10:20:27;;;;;;;10.68;6.37;;;;;;;27.09;47.67;99710.31;4499604;31;34004;-66
2023/07/04 10:22:55;;;;;;;10.60;6.68;;;;;;;27.08;47.69;99706.75;4491644;31;34682;-66
2023/07/04 10:25:23;;;;;;;11.20;6.32;;;;;;;27.09;47.59;99699.38;4487519;31;33636;-66
2023/07/04 10:27:52;;;;;;;9.07;5.65;;;;;;;27.08;47.69;99704.03;4490755;31;33968;-66
2023/07/04 10:30:24;;;;;;;9.80;6.10;;;;;;;27.08;47.76;99697.69;4498493;31;34446;-66
2023/07/04 10:32:55;;;;;;;10.10;6.15;;;;;;;27.09;47.77;99700.22;4490963;31;34473;-67
2023/07/04 10:35:25;;;;;;;10.75;6.30;;;;;;;27.08;47.85;99698.53;4484026;32;34458;-67
2023/07/04 10:37:57;;;;;;;8.40;5.53;;;;;;;27.08;47.94;99695.81;4482846;32;34786;-66
2023/07/04 10:40:25;;;;;;;7.93;5.43;;;;;;;27.09;47.77;99704.84;4491448;31;34022;-66
2023/07/04 10:42:58;;;;;;;8.65;5.15;;;;;;;27.10;47.75;99707.34;4498530;31;34613;-66
2023/07/04 10:45:26;;;;;;;8.25;5.47;;;;;;;27.11;47.63;99699.97;4485601;31;33387;-66
2023/07/04 10:48:09;;;;;;;7.80;5.32;;;;;;;27.13;47.58;99698.59;4498358;31;33556;-66
2023/07/04 10:50:48;;;;;;;8.90;5.72;;;;;;;27.15;47.60;99701.94;4498299;31;33931;-66
2023/07/04 10:53:18;;;;;;;8.33;5.27;;;;;;;27.14;47.64;99697.56;4499412;31;33743;-66
2023/07/04 10:55:50;;;;;;;7.53;5.18;;;;;;;27.15;47.64;99690.97;4498151;31;33399;-66
2023/07/04 10:58:19;;;;;;;7.37;4.97;;;;;;;27.14;47.63;99694.81;4485618;31;34619;-66
2023/07/04 11:00:54;;;;;;;7.45;4.70;;;;;;;27.13;47.50;99690.38;4499303;31;33833;-66
2023/07/04 11:03:30;;;;;;;9.57;4.85;;;;;;;27.15;47.37;99693.72;4499959;31;34189;-66
2023/07/04 11:05:58;;;;;;;7.68;5.15;;;;;;;27.16;47.25;99691.81;4501397;31;33391;-66
2023/07/04 11:08:32;;;;;;;7.15;4.78;;;;;;;27.15;47.18;99682.78;4487616;31;33468;-65
2023/07/04 11:11:08;;;;;;;7.12;5.07;;;;;;;27.15;47.30;99690.97;4499903;31;34049;-66
2023/07/04 11:13:50;;;;;;;7.35;4.62;;;;;;;27.18;47.28;99692.38;4499768;31;34850;-65
2023/07/04 11:16:18;;;;;;;7.30;4.50;;;;;;;27.20;47.26;99690.22;4497905;31;34465;-66
2023/07/04 11:19:17;;;;;;;6.97;4.40;;;;;;;27.20;47.21;99680.09;4461219;31;33926;-65
2023/07/04 11:22:00;;;;;;;7.20;3.97;;;;;;;27.21;47.23;99687.22;4481982;31;34364;-65
2023/07/04 11:24:50;;;;;;;6.32;3.90;;;;;;;27.24;47.18;99683.16;4486549;31;33296;-66
2023/07/04 11:27:24;;;;;;;7.50;4.30;;;;;;;27.21;47.21;99681.75;4501165;31;34251;-66
2023/07/04 11:29:53;;;;;;;6.50;4.07;;;;;;;27.20;47.29;99680.09;4500851;31;34618;-67
2023/07/04 11:32:34;;;;;;;6.95;3.62;;;;;;;27.21;47.36;99684.47;4500905;31;34027;-65
2023/07/04 11:35:13;;;;;;;6.80;3.62;;;;;;;27.25;47.33;99684.81;4486534;31;34680;-66
2023/07/04 11:37:51;;;;;;;6.85;4.15;;;;;;;27.27;47.36;99692.75;4500968;31;33392;-66
2023/07/04 11:40:29;;;;;;;5.82;3.67;;;;;;;27.26;47.33;99686.47;4501061;31;33895;-67
2023/07/04 11:43:04;;;;;;;5.85;3.72;;;;;;;27.26;47.29;99674.66;4486651;31;34790;-67